sensor_id;sensor_type;location;lat;lon;timestamp;pressure;altitude;pressure_sealevel;temperature;humidity
73063;BME280;61230;46.328;19.972;2023-02-28T00:01:34;101744.44;;;0.53;73.97
73063;BME280;61230;46.328;19.972;2023-02-28T00:04:02;101749.72;;;0.50;73.63
73063;BME280;61230;46.328;19.972;2023-02-28T00:06:30;101754.97;;;0.47;74.10
73063;BME280;61230;46.328;19.972;2023-02-28T00:08:57;101695.41;;;0.19;73.96
73063;BME280;61230;46.328;19.972;2023-02-28T00:11:25;101754.12;;;0.46;74.08
73063;BME280;61230;46.328;19.972;2023-02-28T00:13:53;101756.81;;;0.43;74.15
73063;BME280;61230;46.328;19.972;2023-02-28T00:16:22;101764.41;;;0.49;73.54
73063;BME280;61230;46.328;19.972;2023-02-28T00:18:50;101762.66;;;0.50;73.77
73063;BME280;61230;46.328;19.972;2023-02-28T00:21:19;101768.81;;;0.46;73.75
73063;BME280;61230;46.328;19.972;2023-02-28T00:23:47;101775.16;;;0.36;74.06
73063;BME280;61230;46.328;19.972;2023-02-28T00:26:15;101778.44;;;0.42;74.43
73063;BME280;61230;46.328;19.972;2023-02-28T00:28:43;101768.09;;;0.41;73.46
73063;BME280;61230;46.328;19.972;2023-02-28T00:31:11;101774.84;;;0.46;73.87
73063;BME280;61230;46.328;19.972;2023-02-28T00:33:39;101770.50;;;0.47;74.19
73063;BME280;61230;46.328;19.972;2023-02-28T00:36:09;101762.56;;;0.53;74.10
73063;BME280;61230;46.328;19.972;2023-02-28T00:38:38;101770.75;;;0.39;74.03
73063;BME280;61230;46.328;19.972;2023-02-28T00:41:07;101773.66;;;0.27;74.21
73063;BME280;61230;46.328;19.972;2023-02-28T00:43:36;101774.28;;;0.35;74.80
73063;BME280;61230;46.328;19.972;2023-02-28T00:46:05;101768.69;;;0.50;74.94
73063;BME280;61230;46.328;19.972;2023-02-28T00:48:33;101766.22;;;0.46;75.61
73063;BME280;61230;46.328;19.972;2023-02-28T00:51:01;101773.34;;;0.39;76.10
73063;BME280;61230;46.328;19.972;2023-02-28T00:53:29;101767.97;;;0.45;75.33
73063;BME280;61230;46.328;19.972;2023-02-28T00:55:57;101780.16;;;0.42;74.97
73063;BME280;61230;46.328;19.972;2023-02-28T00:58:26;101775.38;;;0.28;75.56
73063;BME280;61230;46.328;19.972;2023-02-28T01:00:54;101762.91;;;0.41;75.40
73063;BME280;61230;46.328;19.972;2023-02-28T01:03:22;101765.75;;;0.32;75.52
73063;BME280;61230;46.328;19.972;2023-02-28T01:05:50;101765.50;;;0.41;75.47
73063;BME280;61230;46.328;19.972;2023-02-28T01:08:18;101763.06;;;0.36;75.25
73063;BME280;61230;46.328;19.972;2023-02-28T01:10:46;101764.47;;;0.48;75.71
73063;BME280;61230;46.328;19.972;2023-02-28T01:13:15;101768.81;;;0.46;76.42
73063;BME280;61230;46.328;19.972;2023-02-28T01:15:55;101753.09;;;0.52;76.41
73063;BME280;61230;46.328;19.972;2023-02-28T01:18:24;101746.41;;;0.45;76.83
73063;BME280;61230;46.328;19.972;2023-02-28T01:20:52;101740.56;;;0.38;78.42
73063;BME280;61230;46.328;19.972;2023-02-28T01:23:22;101718.94;;;0.10;80.01
73063;BME280;61230;46.328;19.972;2023-02-28T01:25:54;101743.31;;;0.02;81.27
73063;BME280;61230;46.328;19.972;2023-02-28T01:28:22;101745.56;;;-0.17;82.35
73063;BME280;61230;46.328;19.972;2023-02-28T01:30:51;101732.88;;;-0.26;84.03
73063;BME280;61230;46.328;19.972;2023-02-28T01:33:19;101681.44;;;-0.71;85.53
73063;BME280;61230;46.328;19.972;2023-02-28T01:35:46;101746.97;;;-0.38;86.96
73063;BME280;61230;46.328;19.972;2023-02-28T01:38:15;101753.31;;;-0.51;88.35
73063;BME280;61230;46.328;19.972;2023-02-28T01:40:51;101752.50;;;-0.53;90.03
73063;BME280;61230;46.328;19.972;2023-02-28T01:43:24;101754.38;;;-0.60;91.71
73063;BME280;61230;46.328;19.972;2023-02-28T01:45:56;101701.22;;;-1.05;93.63
73063;BME280;61230;46.328;19.972;2023-02-28T01:48:27;101756.44;;;-0.72;95.14
73063;BME280;61230;46.328;19.972;2023-02-28T01:51:02;101760.97;;;-0.82;96.53
73063;BME280;61230;46.328;19.972;2023-02-28T01:53:36;101756.28;;;-0.66;97.90
73063;BME280;61230;46.328;19.972;2023-02-28T01:56:07;101706.19;;;-1.33;99.19
73063;BME280;61230;46.328;19.972;2023-02-28T01:58:37;101763.88;;;-0.95;100.00
73063;BME280;61230;46.328;19.972;2023-02-28T02:01:05;101755.63;;;-0.74;100.00
73063;BME280;61230;46.328;19.972;2023-02-28T02:03:35;101753.13;;;-0.79;100.00
73063;BME280;61230;46.328;19.972;2023-02-28T02:06:03;101750.56;;;-0.79;100.00
73063;BME280;61230;46.328;19.972;2023-02-28T02:08:30;101761.34;;;-0.97;100.00
73063;BME280;61230;46.328;19.972;2023-02-28T02:11:00;101769.53;;;-1.18;100.00
73063;BME280;61230;46.328;19.972;2023-02-28T02:24:58;101740.41;;;-1.25;100.00
73063;BME280;61230;46.328;19.972;2023-02-28T02:30:00;101736.13;;;-1.24;100.00
73063;BME280;61230;46.328;19.972;2023-02-28T02:40:58;101731.69;;;-1.19;100.00
73063;BME280;61230;46.328;19.972;2023-02-28T02:44:06;101735.09;;;-1.17;100.00
73063;BME280;61230;46.328;19.972;2023-02-28T02:46:37;101731.81;;;-1.24;100.00
73063;BME280;61230;46.328;19.972;2023-02-28T02:49:22;101731.84;;;-1.25;100.00
73063;BME280;61230;46.328;19.972;2023-02-28T02:51:53;101732.06;;;-1.36;100.00
73063;BME280;61230;46.328;19.972;2023-02-28T02:54:26;101728.63;;;-1.35;100.00
73063;BME280;61230;46.328;19.972;2023-02-28T02:56:59;101663.97;;;-1.68;100.00
73063;BME280;61230;46.328;19.972;2023-02-28T02:59:30;101724.94;;;-1.25;100.00
73063;BME280;61230;46.328;19.972;2023-02-28T03:02:02;101669.88;;;-1.63;100.00
73063;BME280;61230;46.328;19.972;2023-02-28T03:04:34;101718.53;;;-1.47;100.00
73063;BME280;61230;46.328;19.972;2023-02-28T03:07:04;101675.72;;;-1.55;100.00
73063;BME280;61230;46.328;19.972;2023-02-28T03:09:33;101734.44;;;-1.27;100.00
73063;BME280;61230;46.328;19.972;2023-02-28T03:12:02;101678.50;;;-1.64;100.00
73063;BME280;61230;46.328;19.972;2023-02-28T03:23:23;101712.13;;;-1.29;100.00
73063;BME280;61230;46.328;19.972;2023-02-28T03:28:41;101729.47;;;-1.36;100.00
73063;BME280;61230;46.328;19.972;2023-02-28T03:33:55;101738.03;;;-1.32;100.00
73063;BME280;61230;46.328;19.972;2023-02-28T03:36:29;101709.75;;;-1.38;100.00
73063;BME280;61230;46.328;19.972;2023-02-28T03:39:08;101729.41;;;-1.33;100.00
73063;BME280;61230;46.328;19.972;2023-02-28T03:41:42;101726.81;;;-1.31;100.00
73063;BME280;61230;46.328;19.972;2023-02-28T03:47:12;101726.03;;;-1.36;100.00
73063;BME280;61230;46.328;19.972;2023-02-28T03:50:11;101714.91;;;-1.37;100.00
73063;BME280;61230;46.328;19.972;2023-02-28T03:52:47;101736.31;;;-1.33;100.00
73063;BME280;61230;46.328;19.972;2023-02-28T03:55:17;101731.97;;;-1.31;100.00
73063;BME280;61230;46.328;19.972;2023-02-28T03:58:04;101727.75;;;-1.35;100.00
73063;BME280;61230;46.328;19.972;2023-02-28T04:00:40;101667.31;;;-1.63;100.00
73063;BME280;61230;46.328;19.972;2023-02-28T04:03:12;101728.53;;;-1.32;100.00
73063;BME280;61230;46.328;19.972;2023-02-28T04:05:51;101728.47;;;-1.29;100.00
73063;BME280;61230;46.328;19.972;2023-02-28T04:08:21;101740.47;;;-1.26;100.00
73063;BME280;61230;46.328;19.972;2023-02-28T04:10:55;101736.97;;;-1.24;100.00
73063;BME280;61230;46.328;19.972;2023-02-28T04:13:25;101692.66;;;-1.42;100.00
73063;BME280;61230;46.328;19.972;2023-02-28T04:15:52;101731.97;;;-1.31;100.00
73063;BME280;61230;46.328;19.972;2023-02-28T04:18:20;101674.06;;;-1.58;100.00
73063;BME280;61230;46.328;19.972;2023-02-28T04:20:48;101737.16;;;-1.31;100.00
73063;BME280;61230;46.328;19.972;2023-02-28T04:23:15;101732.00;;;-1.33;100.00
73063;BME280;61230;46.328;19.972;2023-02-28T04:25:43;101666.50;;;-1.67;100.00
73063;BME280;61230;46.328;19.972;2023-02-28T04:28:11;101723.44;;;-1.35;100.00
73063;BME280;61230;46.328;19.972;2023-02-28T04:30:38;101728.63;;;-1.36;100.00
73063;BME280;61230;46.328;19.972;2023-02-28T04:33:06;101725.22;;;-1.37;100.00
73063;BME280;61230;46.328;19.972;2023-02-28T04:35:34;101721.78;;;-1.37;100.00
73063;BME280;61230;46.328;19.972;2023-02-28T04:38:02;101720.81;;;-1.33;100.00
73063;BME280;61230;46.328;19.972;2023-02-28T04:40:29;101727.94;;;-1.44;100.00
73063;BME280;61230;46.328;19.972;2023-02-28T04:42:57;101730.38;;;-1.37;100.00
73063;BME280;61230;46.328;19.972;2023-02-28T04:45:25;101680.94;;;-1.58;100.00
73063;BME280;61230;46.328;19.972;2023-02-28T04:47:52;101731.06;;;-1.29;100.00
73063;BME280;61230;46.328;19.972;2023-02-28T04:50:21;101732.00;;;-1.33;100.00
73063;BME280;61230;46.328;19.972;2023-02-28T04:52:48;101674.31;;;-1.70;100.00
73063;BME280;61230;46.328;19.972;2023-02-28T04:55:16;101728.44;;;-1.27;100.00
73063;BME280;61230;46.328;19.972;2023-02-28T04:57:44;101740.34;;;-1.20;100.00
73063;BME280;61230;46.328;19.972;2023-02-28T05:00:11;101739.66;;;-1.28;100.00
73063;BME280;61230;46.328;19.972;2023-02-28T05:02:42;101739.78;;;-1.34;100.00
73063;BME280;61230;46.328;19.972;2023-02-28T05:05:10;101739.81;;;-1.36;100.00
73063;BME280;61230;46.328;19.972;2023-02-28T05:07:37;101729.41;;;-1.31;100.00
73063;BME280;61230;46.328;19.972;2023-02-28T05:10:05;101740.41;;;-1.23;100.00
73063;BME280;61230;46.328;19.972;2023-02-28T05:12:33;101740.53;;;-1.29;100.00
73063;BME280;61230;46.328;19.972;2023-02-28T05:15:00;101741.87;;;-1.11;100.00
73063;BME280;61230;46.328;19.972;2023-02-28T05:17:29;101748.09;;;-1.20;100.00
73063;BME280;61230;46.328;19.972;2023-02-28T05:19:57;101749.91;;;-1.25;100.00
73063;BME280;61230;46.328;19.972;2023-02-28T05:22:42;101751.59;;;-1.24;100.00
73063;BME280;61230;46.328;19.972;2023-02-28T05:25:12;101750.47;;;-1.12;100.00
73063;BME280;61230;46.328;19.972;2023-02-28T05:27:40;101753.88;;;-1.10;100.00
73063;BME280;61230;46.328;19.972;2023-02-28T05:30:09;101758.97;;;-1.07;100.00
73063;BME280;61230;46.328;19.972;2023-02-28T05:32:41;101759.88;;;-1.10;100.00
73063;BME280;61230;46.328;19.972;2023-02-28T05:35:10;101716.72;;;-1.42;100.00
73063;BME280;61230;46.328;19.972;2023-02-28T05:37:39;101708.69;;;-1.28;100.00
73063;BME280;61230;46.328;19.972;2023-02-28T05:40:07;101765.59;;;-0.96;100.00
73063;BME280;61230;46.328;19.972;2023-02-28T05:42:38;101770.16;;;-1.07;100.00
73063;BME280;61230;46.328;19.972;2023-02-28T05:45:06;101776.31;;;-1.12;100.00
73063;BME280;61230;46.328;19.972;2023-02-28T05:47:35;101775.44;;;-1.13;100.00
73063;BME280;61230;46.328;19.972;2023-02-28T05:50:03;101718.03;;;-1.23;100.00
73063;BME280;61230;46.328;19.972;2023-02-28T05:52:33;101775.25;;;-1.04;100.00
73063;BME280;61230;46.328;19.972;2023-02-28T05:55:01;101778.41;;;-0.91;100.00
73063;BME280;61230;46.328;19.972;2023-02-28T05:57:29;101781.09;;;-0.96;100.00
73063;BME280;61230;46.328;19.972;2023-02-28T05:59:57;101782.75;;;-0.93;100.00
73063;BME280;61230;46.328;19.972;2023-02-28T06:02:25;101789.28;;;-0.77;100.00
73063;BME280;61230;46.328;19.972;2023-02-28T06:04:52;101755.41;;;-1.02;100.00
73063;BME280;61230;46.328;19.972;2023-02-28T06:07:20;101793.66;;;-0.81;100.00
73063;BME280;61230;46.328;19.972;2023-02-28T06:09:49;101788.28;;;-0.72;100.00
73063;BME280;61230;46.328;19.972;2023-02-28T06:12:17;101736.62;;;-1.08;100.00
73063;BME280;61230;46.328;19.972;2023-02-28T06:14:45;101784.81;;;-0.71;100.00
73063;BME280;61230;46.328;19.972;2023-02-28T06:17:12;101786.59;;;-0.73;100.00
73063;BME280;61230;46.328;19.972;2023-02-28T06:19:40;101736.72;;;-1.13;100.00
73063;BME280;61230;46.328;19.972;2023-02-28T06:22:08;101796.03;;;-0.72;100.00
73063;BME280;61230;46.328;19.972;2023-02-28T06:24:35;101801.22;;;-0.73;100.00
73063;BME280;61230;46.328;19.972;2023-02-28T06:27:03;101806.53;;;-0.79;100.00
73063;BME280;61230;46.328;19.972;2023-02-28T06:29:35;101801.34;;;-0.78;100.00
73063;BME280;61230;46.328;19.972;2023-02-28T06:32:04;101780.75;;;-0.81;100.00
73063;BME280;61230;46.328;19.972;2023-02-28T06:34:32;101797.66;;;-0.68;100.00
73063;BME280;61230;46.328;19.972;2023-02-28T06:37:00;101791.22;;;-0.50;100.00
73063;BME280;61230;46.328;19.972;2023-02-28T06:39:30;101804.84;;;-0.43;100.00
73063;BME280;61230;46.328;19.972;2023-02-28T06:41:58;101805.94;;;-0.53;100.00
73063;BME280;61230;46.328;19.972;2023-02-28T06:44:26;101798.19;;;-0.53;100.00
73063;BME280;61230;46.328;19.972;2023-02-28T06:46:53;101801.03;;;-0.64;100.00
73063;BME280;61230;46.328;19.972;2023-02-28T06:49:21;101805.19;;;-0.59;100.00
73063;BME280;61230;46.328;19.972;2023-02-28T06:51:49;101796.19;;;-0.42;100.00
73063;BME280;61230;46.328;19.972;2023-02-28T06:54:17;101787.75;;;-0.49;100.00
73063;BME280;61230;46.328;19.972;2023-02-28T06:56:44;101787.34;;;-0.34;100.00
73063;BME280;61230;46.328;19.972;2023-02-28T06:59:12;101789.53;;;-0.52;100.00
73063;BME280;61230;46.328;19.972;2023-02-28T07:01:40;101793.59;;;-0.42;100.00
73063;BME280;61230;46.328;19.972;2023-02-28T07:04:09;101795.97;;;-0.33;100.00
73063;BME280;61230;46.328;19.972;2023-02-28T07:06:36;101768.75;;;-0.48;99.41
73063;BME280;61230;46.328;19.972;2023-02-28T07:09:04;101802.97;;;-0.03;99.40
73063;BME280;61230;46.328;19.972;2023-02-28T07:11:32;101811.03;;;-0.15;97.56
73063;BME280;61230;46.328;19.972;2023-02-28T07:14:00;101809.97;;;-0.08;97.41
73063;BME280;61230;46.328;19.972;2023-02-28T07:16:28;101806.44;;;-0.06;97.19
73063;BME280;61230;46.328;19.972;2023-02-28T07:18:55;101806.56;;;-0.10;96.39
73063;BME280;61230;46.328;19.972;2023-02-28T07:21:23;101751.34;;;-0.40;96.22
73063;BME280;61230;46.328;19.972;2023-02-28T07:23:51;101823.16;;;-0.17;97.41
73063;BME280;61230;46.328;19.972;2023-02-28T07:26:19;101822.88;;;-0.07;97.00
73063;BME280;61230;46.328;19.972;2023-02-28T07:28:48;101820.37;;;-0.11;97.61
73063;BME280;61230;46.328;19.972;2023-02-28T07:31:17;101821.38;;;-0.17;96.97
73063;BME280;61230;46.328;19.972;2023-02-28T07:33:46;101752.78;;;-0.30;96.17
73063;BME280;61230;46.328;19.972;2023-02-28T07:36:15;101812.81;;;0.15;95.39
73063;BME280;61230;46.328;19.972;2023-02-28T07:38:47;101817.09;;;0.16;96.22
73063;BME280;61230;46.328;19.972;2023-02-28T07:41:19;101820.37;;;-0.11;95.10
73063;BME280;61230;46.328;19.972;2023-02-28T07:43:47;101821.06;;;-0.03;94.71
73063;BME280;61230;46.328;19.972;2023-02-28T07:46:16;101771.03;;;-0.36;95.25
73063;BME280;61230;46.328;19.972;2023-02-28T07:48:44;101813.94;;;0.05;94.42
73063;BME280;61230;46.328;19.972;2023-02-28T07:51:12;101809.13;;;0.24;94.80
73063;BME280;61230;46.328;19.972;2023-02-28T07:53:40;101809.25;;;0.19;94.17
73063;BME280;61230;46.328;19.972;2023-02-28T07:56:07;101818.53;;;0.26;92.92
73063;BME280;61230;46.328;19.972;2023-02-28T07:58:36;101762.84;;;0.13;92.61
73063;BME280;61230;46.328;19.972;2023-02-28T08:01:08;101813.72;;;0.45;91.74
73063;BME280;61230;46.328;19.972;2023-02-28T08:03:38;101824.50;;;0.30;93.08
73063;BME280;61230;46.328;19.972;2023-02-28T08:06:08;101763.72;;;0.12;92.11
73063;BME280;61230;46.328;19.972;2023-02-28T08:08:42;101774.00;;;0.15;91.02
73063;BME280;61230;46.328;19.972;2023-02-28T08:11:11;101768.72;;;0.18;91.63
73063;BME280;61230;46.328;19.972;2023-02-28T08:13:39;101758.31;;;0.21;91.35
73063;BME280;61230;46.328;19.972;2023-02-28T08:16:07;101813.00;;;0.71;90.88
73063;BME280;61230;46.328;19.972;2023-02-28T08:18:34;101797.31;;;0.75;90.62
73063;BME280;61230;46.328;19.972;2023-02-28T08:21:07;101809.47;;;0.73;92.22
73063;BME280;61230;46.328;19.972;2023-02-28T08:23:35;101774.28;;;0.37;91.78
73063;BME280;61230;46.328;19.972;2023-02-28T08:26:03;101768.25;;;0.36;91.08
73063;BME280;61230;46.328;19.972;2023-02-28T08:28:31;101819.91;;;0.70;91.45
73063;BME280;61230;46.328;19.972;2023-02-28T08:30:59;101815.06;;;0.58;90.86
73063;BME280;61230;46.328;19.972;2023-02-28T08:33:27;101828.06;;;0.86;91.71
73063;BME280;61230;46.328;19.972;2023-02-28T08:35:56;101815.47;;;1.03;90.86
73063;BME280;61230;46.328;19.972;2023-02-28T08:38:24;101816.66;;;0.93;90.90
73063;BME280;61230;46.328;19.972;2023-02-28T08:40:59;101821.47;;;0.76;90.44
73063;BME280;61230;46.328;19.972;2023-02-28T08:43:28;101824.34;;;0.96;90.62
73063;BME280;61230;46.328;19.972;2023-02-28T08:45:56;101830.47;;;0.93;90.97
73063;BME280;61230;46.328;19.972;2023-02-28T08:48:28;101819.69;;;1.07;90.27
73063;BME280;61230;46.328;19.972;2023-02-28T08:51:01;101823.16;;;1.06;90.76
73063;BME280;61230;46.328;19.972;2023-02-28T08:53:36;101824.44;;;0.91;90.97
73063;BME280;61230;46.328;19.972;2023-02-28T08:56:14;101821.66;;;0.99;91.98
73063;BME280;61230;46.328;19.972;2023-02-28T08:58:44;101822.53;;;0.98;92.05
73063;BME280;61230;46.328;19.972;2023-02-28T09:01:19;101814.94;;;0.92;92.51
73063;BME280;61230;46.328;19.972;2023-02-28T09:03:49;101819.00;;;1.00;91.22
73063;BME280;61230;46.328;19.972;2023-02-28T09:06:19;101815.03;;;0.89;92.77
73063;BME280;61230;46.328;19.972;2023-02-28T09:08:47;101814.69;;;1.01;92.46
73063;BME280;61230;46.328;19.972;2023-02-28T09:11:15;101826.87;;;1.25;92.38
73063;BME280;61230;46.328;19.972;2023-02-28T09:13:43;101827.38;;;1.10;91.62
73063;BME280;61230;46.328;19.972;2023-02-28T09:16:13;101820.53;;;1.07;91.76
73063;BME280;61230;46.328;19.972;2023-02-28T09:18:41;101817.97;;;1.34;91.11
73063;BME280;61230;46.328;19.972;2023-02-28T09:21:13;101765.81;;;1.16;91.50
73063;BME280;61230;46.328;19.972;2023-02-28T09:23:43;101825.34;;;1.47;91.18
73063;BME280;61230;46.328;19.972;2023-02-28T09:26:23;101825.22;;;1.23;92.07
73063;BME280;61230;46.328;19.972;2023-02-28T09:28:52;101780.31;;;1.22;91.79
73063;BME280;61230;46.328;19.972;2023-02-28T09:31:26;101831.00;;;1.32;93.03
73063;BME280;61230;46.328;19.972;2023-02-28T09:33:55;101831.06;;;1.57;93.14
73063;BME280;61230;46.328;19.972;2023-02-28T09:36:25;101830.47;;;1.49;93.42
73063;BME280;61230;46.328;19.972;2023-02-28T09:39:09;101829.00;;;1.40;94.44
73063;BME280;61230;46.328;19.972;2023-02-28T09:41:40;101817.88;;;1.64;94.03
73063;BME280;61230;46.328;19.972;2023-02-28T09:44:43;101819.03;;;1.81;94.84
73063;BME280;61230;46.328;19.972;2023-02-28T09:49:53;101822.94;;;2.43;92.66
73063;BME280;61230;46.328;19.972;2023-02-28T09:52:31;101813.47;;;2.17;93.33
73063;BME280;61230;46.328;19.972;2023-02-28T09:55:12;101807.59;;;2.36;92.18
73063;BME280;61230;46.328;19.972;2023-02-28T09:57:46;101813.34;;;2.20;93.52
73063;BME280;61230;46.328;19.972;2023-02-28T10:08:19;101814.38;;;1.90;93.42
73063;BME280;61230;46.328;19.972;2023-02-28T10:10:57;101803.78;;;1.71;94.75
73063;BME280;61230;46.328;19.972;2023-02-28T10:13:50;101815.56;;;2.06;94.76
73063;BME280;61230;46.328;19.972;2023-02-28T10:16:28;101815.00;;;1.98;94.48
73063;BME280;61230;46.328;19.972;2023-02-28T10:19:03;101815.94;;;1.96;94.52
73063;BME280;61230;46.328;19.972;2023-02-28T10:21:40;101784.75;;;1.97;93.75
73063;BME280;61230;46.328;19.972;2023-02-28T10:27:20;101819.59;;;2.15;93.04
73063;BME280;61230;46.328;19.972;2023-02-28T10:29:54;101830.81;;;1.91;94.23
73063;BME280;61230;46.328;19.972;2023-02-28T10:32:27;101829.63;;;1.74;95.10
73063;BME280;61230;46.328;19.972;2023-02-28T10:35:24;101826.56;;;1.88;94.16
73063;BME280;61230;46.328;19.972;2023-02-28T10:37:57;101829.22;;;1.87;95.82
73063;BME280;61230;46.328;19.972;2023-02-28T10:40:33;101829.91;;;1.92;96.25
73063;BME280;61230;46.328;19.972;2023-02-28T10:43:05;101825.94;;;1.82;96.13
73063;BME280;61230;46.328;19.972;2023-02-28T10:46:03;101822.16;;;1.90;95.08
73063;BME280;61230;46.328;19.972;2023-02-28T10:51:03;101816.28;;;1.85;96.76
73063;BME280;61230;46.328;19.972;2023-02-28T10:53:58;101764.00;;;1.45;96.06
73063;BME280;61230;46.328;19.972;2023-02-28T10:56:29;101814.41;;;1.64;97.70
73063;BME280;61230;46.328;19.972;2023-02-28T10:59:01;101810.88;;;1.66;97.01
73063;BME280;61230;46.328;19.972;2023-02-28T11:03:57;101757.28;;;1.39;97.10
73063;BME280;61230;46.328;19.972;2023-02-28T11:06:33;101810.41;;;1.80;97.11
73063;BME280;61230;46.328;19.972;2023-02-28T11:09:37;101803.28;;;1.87;97.88
73063;BME280;61230;46.328;19.972;2023-02-28T11:12:05;101798.50;;;1.99;98.46
73063;BME280;61230;46.328;19.972;2023-02-28T11:14:41;101794.03;;;2.04;98.22
73063;BME280;61230;46.328;19.972;2023-02-28T11:17:21;101798.94;;;1.87;97.24
73063;BME280;61230;46.328;19.972;2023-02-28T11:19:52;101795.38;;;1.90;98.00
73063;BME280;61230;46.328;19.972;2023-02-28T11:22:23;101788.31;;;1.93;98.20
73063;BME280;61230;46.328;19.972;2023-02-28T11:24:55;101793.50;;;1.68;98.87
73063;BME280;61230;46.328;19.972;2023-02-28T11:27:47;101788.75;;;1.81;99.11
73063;BME280;61230;46.328;19.972;2023-02-28T11:30:36;101794.25;;;1.72;99.51
73063;BME280;61230;46.328;19.972;2023-02-28T11:35:55;101783.03;;;1.71;100.00
73063;BME280;61230;46.328;19.972;2023-02-28T11:38:26;101793.56;;;1.67;100.00
73063;BME280;61230;46.328;19.972;2023-02-28T11:43:43;101790.59;;;1.78;100.00
73063;BME280;61230;46.328;19.972;2023-02-28T11:51:28;101780.13;;;1.54;100.00
73063;BME280;61230;46.328;19.972;2023-02-28T11:56:55;101728.37;;;1.51;100.00
73063;BME280;61230;46.328;19.972;2023-02-28T12:08:15;101780.88;;;1.84;100.00
73063;BME280;61230;46.328;19.972;2023-02-28T12:13:50;101774.72;;;2.11;100.00
73063;BME280;61230;46.328;19.972;2023-02-28T12:16:33;101771.97;;;1.91;100.00
73063;BME280;61230;46.328;19.972;2023-02-28T12:19:16;101778.75;;;1.95;100.00
73063;BME280;61230;46.328;19.972;2023-02-28T12:27:41;101778.91;;;1.91;100.00
73063;BME280;61230;46.328;19.972;2023-02-28T12:30:22;101768.47;;;1.92;100.00
73063;BME280;61230;46.328;19.972;2023-02-28T12:33:11;101768.97;;;2.03;100.00
73063;BME280;61230;46.328;19.972;2023-02-28T12:35:57;101755.53;;;1.91;100.00
73063;BME280;61230;46.328;19.972;2023-02-28T12:38:45;101762.63;;;1.87;100.00
73063;BME280;61230;46.328;19.972;2023-02-28T12:41:19;101763.66;;;2.06;100.00
73063;BME280;61230;46.328;19.972;2023-02-28T12:44:12;101762.53;;;2.13;100.00
73063;BME280;61230;46.328;19.972;2023-02-28T12:46:44;101759.06;;;2.13;100.00
73063;BME280;61230;46.328;19.972;2023-02-28T12:49:25;101767.25;;;2.50;100.00
73063;BME280;61230;46.328;19.972;2023-02-28T12:51:55;101734.06;;;1.87;100.00
73063;BME280;61230;46.328;19.972;2023-02-28T12:54:31;101762.16;;;1.99;100.00
73063;BME280;61230;46.328;19.972;2023-02-28T13:11:24;101753.13;;;2.34;100.00
73063;BME280;61230;46.328;19.972;2023-02-28T13:13:58;101751.78;;;2.24;100.00
73063;BME280;61230;46.328;19.972;2023-02-28T13:16:47;101750.47;;;2.36;100.00
73063;BME280;61230;46.328;19.972;2023-02-28T13:19:19;101753.97;;;2.35;100.00
73063;BME280;61230;46.328;19.972;2023-02-28T13:21:52;101743.06;;;2.25;100.00
73063;BME280;61230;46.328;19.972;2023-02-28T13:29:39;101748.22;;;2.26;100.00
73063;BME280;61230;46.328;19.972;2023-02-28T13:40:07;101747.88;;;2.12;100.00
73063;BME280;61230;46.328;19.972;2023-02-28T13:42:50;101737.16;;;1.97;100.00
73063;BME280;61230;46.328;19.972;2023-02-28T13:45:30;101746.44;;;2.04;100.00
73063;BME280;61230;46.328;19.972;2023-02-28T13:48:18;101744.00;;;2.24;100.00
73063;BME280;61230;46.328;19.972;2023-02-28T13:50:46;101749.44;;;2.16;100.00
73063;BME280;61230;46.328;19.972;2023-02-28T13:58:41;101740.38;;;2.28;100.00
73063;BME280;61230;46.328;19.972;2023-02-28T14:04:21;101742.78;;;2.09;100.00
73063;BME280;61230;46.328;19.972;2023-02-28T14:06:56;101737.41;;;2.14;100.00
73063;BME280;61230;46.328;19.972;2023-02-28T14:09:38;101733.38;;;2.07;100.00
73063;BME280;61230;46.328;19.972;2023-02-28T14:18:03;101738.09;;;2.19;100.00
73063;BME280;61230;46.328;19.972;2023-02-28T14:20:33;101726.31;;;2.33;100.00
73063;BME280;61230;46.328;19.972;2023-02-28T14:23:24;101733.44;;;2.28;100.00
73063;BME280;61230;46.328;19.972;2023-02-28T14:29:09;101742.06;;;2.52;100.00
73063;BME280;61230;46.328;19.972;2023-02-28T14:31:51;101737.34;;;2.62;100.00
73063;BME280;61230;46.328;19.972;2023-02-28T14:34:48;101722.53;;;2.42;100.00
73063;BME280;61230;46.328;19.972;2023-02-28T14:37:25;101728.75;;;2.38;100.00
73063;BME280;61230;46.328;19.972;2023-02-28T14:39:54;101735.41;;;2.45;100.00
73063;BME280;61230;46.328;19.972;2023-02-28T14:42:35;101734.53;;;2.45;100.00
73063;BME280;61230;46.328;19.972;2023-02-28T14:45:05;101721.19;;;2.32;100.00
73063;BME280;61230;46.328;19.972;2023-02-28T14:47:35;101731.69;;;2.29;100.00
73063;BME280;61230;46.328;19.972;2023-02-28T14:50:04;101726.53;;;2.04;100.00
73063;BME280;61230;46.328;19.972;2023-02-28T14:52:32;101709.00;;;1.86;100.00
73063;BME280;61230;46.328;19.972;2023-02-28T14:55:03;101722.97;;;2.07;100.00
73063;BME280;61230;46.328;19.972;2023-02-28T14:57:40;101721.37;;;2.03;100.00
73063;BME280;61230;46.328;19.972;2023-02-28T15:00:27;101719.78;;;1.99;100.00
73063;BME280;61230;46.328;19.972;2023-02-28T15:02:57;101714.59;;;1.99;100.00
73063;BME280;61230;46.328;19.972;2023-02-28T15:05:29;101719.06;;;1.95;100.00
73063;BME280;61230;46.328;19.972;2023-02-28T15:08:16;101720.53;;;2.02;100.00
73063;BME280;61230;46.328;19.972;2023-02-28T15:13:22;101721.69;;;2.18;100.00
73063;BME280;61230;46.328;19.972;2023-02-28T15:15:57;101719.00;;;1.97;100.00
73063;BME280;61230;46.328;19.972;2023-02-28T15:18:39;101720.44;;;2.05;100.00
73063;BME280;61230;46.328;19.972;2023-02-28T15:21:15;101718.56;;;2.09;100.00
73063;BME280;61230;46.328;19.972;2023-02-28T15:23:52;101720.38;;;2.07;100.00